createdAt,value
2022-12-04T00:01:27.153Z,0.35
2022-12-04T00:04:28.753Z,0.34
2022-12-04T00:07:30.479Z,0.33
2022-12-04T00:10:32.021Z,0.35
2022-12-04T00:13:34.575Z,0.35
2022-12-04T00:16:36.602Z,0.37
2022-12-04T00:19:38.300Z,0.34
2022-12-04T00:22:39.852Z,0.34
2022-12-04T00:25:41.686Z,0.33
2022-12-04T00:28:44.328Z,0.32
2022-12-04T00:31:46.190Z,0.31
2022-12-04T00:34:47.824Z,0.31
2022-12-04T00:37:49.353Z,0.31
2022-12-04T00:40:52.134Z,0.25
2022-12-04T00:43:53.771Z,0.25
2022-12-04T00:46:55.303Z,0.22
2022-12-04T00:49:57.177Z,0.19
2022-12-04T00:52:59.032Z,0.17
2022-12-04T00:56:05.692Z,0.21
2022-12-04T00:59:07.740Z,0.24
2022-12-04T01:02:09.669Z,0.27
2022-12-04T01:05:12.368Z,0.26
2022-12-04T01:08:13.985Z,0.27
2022-12-04T01:11:16.608Z,0.27
2022-12-04T01:14:18.155Z,0.31
2022-12-04T01:17:19.663Z,0.31
2022-12-04T01:20:21.208Z,0.31
2022-12-04T01:23:22.777Z,0.27
2022-12-04T01:26:24.384Z,0.25
2022-12-04T01:29:25.946Z,0.23
2022-12-04T01:32:28.672Z,0.20
2022-12-04T01:35:30.305Z,0.26
2022-12-04T01:38:32.064Z,0.29
2022-12-04T01:41:33.696Z,0.29
2022-12-04T01:44:35.354Z,0.34
2022-12-04T01:47:36.906Z,0.37
2022-12-04T01:50:38.564Z,0.38
2022-12-04T01:53:43.190Z,0.39
2022-12-04T01:56:50.761Z,0.34
2022-12-04T02:00:00.295Z,0.39
2022-12-04T02:03:02.065Z,0.40
2022-12-04T02:06:04.226Z,0.37
2022-12-04T02:09:05.890Z,0.39
2022-12-04T02:12:19.746Z,0.40
2022-12-04T02:15:46.319Z,0.39
2022-12-04T02:19:09.656Z,0.39
2022-12-04T02:22:37.807Z,0.38
2022-12-04T02:26:02.938Z,0.39
2022-12-04T02:29:12.860Z,0.42
2022-12-04T02:32:20.110Z,0.42
2022-12-04T02:35:31.101Z,0.36
2022-12-04T02:38:37.431Z,0.46
2022-12-04T02:41:48.756Z,0.42
2022-12-04T02:44:59.983Z,0.43
2022-12-04T02:48:05.393Z,0.45
2022-12-04T02:51:10.318Z,0.46
2022-12-04T02:54:24.064Z,0.47
2022-12-04T02:57:33.226Z,0.47
2022-12-04T03:00:37.136Z,0.51
2022-12-04T03:03:38.988Z,0.50
2022-12-04T03:06:44.247Z,0.51
2022-12-04T03:09:50.892Z,0.52
2022-12-04T03:12:58.384Z,0.54
2022-12-04T03:16:33.185Z,0.55
2022-12-04T03:19:45.657Z,0.52
2022-12-04T03:22:51.947Z,0.53
2022-12-04T03:26:05.817Z,0.55
2022-12-04T03:29:25.262Z,0.57
2022-12-04T03:32:45.158Z,0.58
2022-12-04T03:35:52.408Z,0.56
2022-12-04T03:39:01.597Z,0.56
2022-12-04T03:42:06.520Z,0.55
2022-12-04T03:45:20.766Z,0.55
2022-12-04T03:48:40.965Z,0.53
2022-12-04T03:51:55.603Z,0.54
2022-12-04T03:55:04.542Z,0.51
2022-12-04T03:58:11.293Z,0.55
2022-12-04T04:01:15.205Z,0.58
2022-12-04T04:04:25.800Z,0.46
2022-12-04T04:08:18.592Z,0.52
2022-12-04T04:11:27.137Z,0.50
2022-12-04T04:15:09.687Z,0.53
2022-12-04T04:18:30.017Z,0.54
2022-12-04T04:21:56.185Z,0.55
2022-12-04T04:25:13.926Z,0.55
2022-12-04T04:28:36.963Z,0.50
2022-12-04T04:31:45.690Z,0.53
2022-12-04T04:34:52.974Z,0.56
2022-12-04T04:38:12.893Z,0.55
2022-12-04T04:41:39.824Z,0.56
2022-12-04T04:44:51.490Z,0.57
2022-12-04T04:47:56.038Z,0.59
2022-12-04T04:50:59.931Z,0.58
2022-12-04T04:54:06.830Z,0.54
2022-12-04T04:57:08.363Z,0.58
2022-12-04T05:00:19.535Z,0.59
2022-12-04T05:03:21.173Z,0.58
2022-12-04T05:06:22.793Z,0.62
2022-12-04T05:09:24.404Z,0.64
2022-12-04T05:12:25.930Z,0.62
2022-12-04T05:15:27.538Z,0.63
2022-12-04T05:18:30.028Z,0.63
2022-12-04T05:21:32.991Z,0.63
2022-12-04T05:24:34.519Z,0.66
2022-12-04T05:27:36.025Z,0.66
2022-12-04T05:30:37.869Z,0.66
2022-12-04T05:33:39.422Z,0.66
2022-12-04T05:36:40.967Z,0.71
2022-12-04T05:39:42.680Z,0.73
2022-12-04T05:42:44.215Z,0.77
2022-12-04T05:45:46.009Z,0.69
2022-12-04T05:48:49.820Z,0.76
2022-12-04T05:51:51.951Z,0.76
2022-12-04T05:54:53.551Z,0.76
2022-12-04T05:57:55.065Z,0.80
2022-12-04T06:00:56.785Z,0.82
2022-12-04T06:04:01.062Z,0.83
2022-12-04T06:07:02.605Z,0.83
2022-12-04T06:10:05.267Z,0.84
2022-12-04T06:13:07.343Z,0.88
2022-12-04T06:16:17.978Z,0.88
2022-12-04T06:19:21.704Z,0.90
2022-12-04T06:22:23.289Z,0.92
2022-12-04T06:25:24.810Z,0.95
2022-12-04T06:28:26.583Z,0.95
2022-12-04T06:31:29.696Z,0.90
2022-12-04T06:34:32.416Z,0.96
2022-12-04T06:37:34.282Z,0.99
2022-12-04T06:40:39.991Z,0.99
2022-12-04T06:43:42.148Z,0.99
2022-12-04T06:46:47.098Z,1.00
2022-12-04T06:49:50.364Z,1.01
2022-12-04T06:52:51.857Z,1.02
2022-12-04T06:55:53.679Z,1.05
2022-12-04T06:58:57.403Z,1.06
2022-12-04T07:01:58.995Z,1.07
2022-12-04T07:05:00.603Z,1.08
2022-12-04T07:08:02.701Z,1.10
2022-12-04T07:11:04.340Z,1.09
2022-12-04T07:14:05.947Z,1.10
2022-12-04T07:17:07.517Z,1.11
2022-12-04T07:20:09.616Z,1.14
2022-12-04T07:23:11.131Z,1.20
2022-12-04T07:26:13.974Z,1.20
2022-12-04T07:29:15.557Z,1.22
2022-12-04T07:32:17.168Z,1.24
2022-12-04T07:35:18.723Z,1.26
2022-12-04T07:38:20.265Z,1.25
2022-12-04T07:41:21.836Z,1.27
2022-12-04T07:44:23.425Z,1.29
2022-12-04T07:47:24.950Z,1.32
2022-12-04T07:50:26.542Z,1.30
2022-12-04T07:53:28.079Z,1.32
2022-12-04T07:56:29.704Z,1.34
2022-12-04T07:59:31.271Z,1.35
2022-12-04T08:02:32.784Z,1.34
2022-12-04T08:05:34.476Z,1.35
2022-12-04T08:08:36.751Z,1.38
2022-12-04T08:11:38.984Z,1.36
2022-12-04T08:14:40.500Z,1.41
2022-12-04T08:17:42.033Z,1.41
2022-12-04T08:20:44.027Z,1.43
2022-12-04T08:23:45.592Z,1.43
2022-12-04T08:26:47.162Z,1.44
2022-12-04T08:29:48.797Z,1.46
2022-12-04T08:32:50.592Z,1.46
2022-12-04T08:35:52.198Z,1.46
2022-12-04T08:38:54.365Z,1.45
2022-12-04T08:41:57.288Z,1.47
2022-12-04T08:44:58.955Z,1.47
2022-12-04T08:48:00.491Z,1.48
2022-12-04T08:51:04.325Z,1.54
2022-12-04T08:54:08.650Z,1.56
2022-12-04T08:57:10.166Z,1.59
2022-12-04T09:00:12.936Z,1.61
2022-12-04T09:03:16.988Z,1.61
2022-12-04T09:06:18.837Z,1.63
2022-12-04T09:09:20.391Z,1.69
2022-12-04T09:12:21.918Z,1.72
2022-12-04T09:15:23.476Z,1.73
2022-12-04T09:18:25.104Z,1.76
2022-12-04T09:21:26.682Z,1.81
2022-12-04T09:24:31.803Z,1.82
2022-12-04T09:27:37.682Z,1.85
2022-12-04T09:30:39.268Z,1.89
2022-12-04T09:33:41.116Z,1.94
2022-12-04T09:36:42.683Z,1.96
2022-12-04T09:39:46.156Z,1.96
2022-12-04T09:43:21.356Z,2.00
2022-12-04T09:46:31.001Z,2.05
2022-12-04T09:49:46.160Z,2.06
2022-12-04T09:52:56.560Z,2.04
2022-12-04T09:55:58.077Z,2.07
2022-12-04T09:59:08.628Z,2.07
2022-12-04T10:02:51.774Z,2.08
2022-12-04T10:05:59.421Z,2.07
2022-12-04T10:09:30.417Z,2.07
2022-12-04T10:12:53.259Z,2.08
2022-12-04T10:16:17.116Z,2.08
2022-12-04T10:19:29.044Z,2.10
2022-12-04T10:22:47.783Z,2.12
2022-12-04T10:25:51.944Z,2.13
2022-12-04T10:29:18.330Z,2.13
2022-12-04T10:32:34.751Z,2.20
2022-12-04T10:35:37.897Z,2.20
2022-12-04T10:38:44.954Z,2.20
2022-12-04T10:41:59.988Z,2.19
2022-12-04T10:45:01.881Z,2.18
2022-12-04T10:48:04.900Z,2.15
2022-12-04T10:51:10.086Z,2.20
2022-12-04T10:54:34.560Z,2.23
2022-12-04T10:57:37.526Z,2.24
2022-12-04T11:00:39.076Z,2.25
2022-12-04T11:03:57.681Z,2.28
2022-12-04T11:07:05.464Z,2.32
2022-12-04T11:10:22.121Z,2.36
2022-12-04T11:13:24.413Z,2.38
2022-12-04T11:16:39.833Z,2.38
2022-12-04T11:19:41.419Z,2.37
2022-12-04T11:23:14.781Z,2.38
2022-12-04T11:26:28.995Z,2.38
2022-12-04T11:29:38.364Z,2.42
2022-12-04T11:32:42.004Z,2.42
2022-12-04T11:35:51.695Z,2.42
2022-12-04T11:39:03.916Z,2.41
2022-12-04T11:42:23.321Z,2.44
2022-12-04T11:45:24.872Z,2.45
2022-12-04T11:48:29.272Z,2.42
2022-12-04T11:51:55.584Z,2.41
2022-12-04T11:55:03.457Z,2.44
2022-12-04T11:58:29.567Z,2.44
2022-12-04T12:01:34.058Z,2.44
2022-12-04T12:05:13.398Z,2.37
2022-12-04T12:09:08.487Z,2.33
2022-12-04T12:12:34.931Z,2.33
2022-12-04T12:15:51.921Z,2.33
2022-12-04T12:19:11.692Z,2.31
2022-12-04T12:22:38.711Z,2.29
2022-12-04T12:25:59.036Z,2.25
2022-12-04T12:29:12.748Z,2.22
2022-12-04T12:32:23.752Z,2.12
2022-12-04T12:35:36.259Z,2.19
2022-12-04T12:38:50.317Z,2.16
2022-12-04T12:41:59.033Z,2.18
2022-12-04T12:45:21.269Z,2.19
2022-12-04T12:48:26.560Z,2.21
2022-12-04T12:51:54.675Z,2.24
2022-12-04T12:55:04.031Z,2.27
2022-12-04T12:58:22.177Z,2.28
2022-12-04T13:01:41.680Z,2.26
2022-12-04T13:04:47.717Z,2.23
2022-12-04T13:08:18.324Z,2.25
2022-12-04T13:11:22.557Z,2.27
2022-12-04T13:14:24.198Z,2.25
2022-12-04T13:17:25.643Z,2.26
2022-12-04T13:20:32.191Z,2.24
2022-12-04T13:24:06.066Z,2.28
2022-12-04T13:27:13.195Z,2.26
2022-12-04T13:30:20.631Z,2.25
2022-12-04T13:33:49.744Z,2.24
2022-12-04T13:37:12.413Z,2.22
2022-12-04T13:40:34.808Z,2.19
2022-12-04T13:43:42.116Z,2.18
2022-12-04T13:47:00.979Z,2.15
2022-12-04T13:50:17.929Z,2.13
2022-12-04T13:53:34.167Z,2.15
2022-12-04T13:56:35.809Z,2.14
2022-12-04T13:59:39.880Z,2.13
2022-12-04T14:02:49.616Z,2.16
2022-12-04T14:05:52.007Z,2.15
2022-12-04T14:09:00.705Z,2.14
2022-12-04T14:12:05.374Z,2.15
2022-12-04T14:15:20.061Z,2.15
2022-12-04T14:18:29.776Z,2.15
2022-12-04T14:21:46.841Z,2.14
2022-12-04T14:24:50.033Z,2.14
2022-12-04T14:27:53.614Z,2.14
2022-12-04T14:31:08.912Z,2.14
2022-12-04T14:34:27.252Z,2.18
2022-12-04T14:37:34.988Z,2.18
2022-12-04T14:40:43.528Z,2.18
2022-12-04T14:43:45.491Z,2.16
2022-12-04T14:46:52.177Z,2.12
2022-12-04T14:50:21.981Z,2.11
2022-12-04T14:53:53.099Z,2.09
2022-12-04T14:57:21.818Z,2.07
2022-12-04T15:00:24.964Z,2.06
2022-12-04T15:03:29.965Z,2.07
2022-12-04T15:06:33.266Z,2.05
2022-12-04T15:09:54.118Z,2.01
2022-12-04T15:12:55.649Z,2.00
2022-12-04T15:15:57.643Z,1.95
2022-12-04T15:19:00.617Z,2.00
2022-12-04T15:22:10.076Z,2.00
2022-12-04T15:25:25.311Z,1.97
2022-12-04T15:28:57.819Z,1.92
2022-12-04T15:32:03.623Z,1.91
2022-12-04T15:35:13.893Z,1.88
2022-12-04T15:38:16.381Z,1.88
2022-12-04T15:41:36.114Z,1.89
2022-12-04T15:44:37.677Z,1.88
2022-12-04T15:47:41.895Z,1.87
2022-12-04T15:50:43.491Z,1.84
2022-12-04T15:53:46.723Z,1.83
2022-12-04T15:57:03.443Z,1.83
2022-12-04T16:00:26.596Z,1.84
2022-12-04T16:03:37.352Z,1.82
2022-12-04T16:06:47.342Z,1.86
2022-12-04T16:10:03.164Z,1.85
2022-12-04T16:13:05.688Z,1.83
2022-12-04T16:16:13.248Z,1.82
2022-12-04T16:19:21.588Z,1.82
2022-12-04T16:22:24.735Z,1.82
2022-12-04T16:25:26.308Z,1.83
2022-12-04T16:28:27.816Z,1.85
2022-12-04T16:31:29.474Z,1.86
2022-12-04T16:34:31.380Z,1.89
2022-12-04T16:37:33.000Z,1.88
2022-12-04T16:40:34.593Z,1.89
2022-12-04T16:43:36.125Z,1.90
2022-12-04T16:46:37.794Z,1.91
2022-12-04T16:49:40.426Z,1.88
2022-12-04T16:52:42.491Z,1.89
2022-12-04T16:55:46.627Z,1.91
2022-12-04T16:58:48.612Z,1.93
2022-12-04T17:01:51.470Z,1.95
2022-12-04T17:04:57.530Z,1.94
2022-12-04T17:08:01.460Z,2.03
2022-12-04T17:11:03.279Z,2.04
2022-12-04T17:14:07.221Z,2.06
2022-12-04T17:17:11.717Z,1.98
2022-12-04T17:20:17.738Z,2.06
2022-12-04T17:23:19.311Z,2.07
2022-12-04T17:26:21.198Z,2.07
2022-12-04T17:29:22.731Z,2.09
2022-12-04T17:32:24.277Z,2.07
2022-12-04T17:35:25.833Z,2.09
2022-12-04T17:38:27.850Z,2.07
2022-12-04T17:41:29.488Z,2.09
2022-12-04T17:44:31.069Z,2.01
2022-12-04T17:47:34.770Z,2.06
2022-12-04T17:50:36.304Z,2.06
2022-12-04T17:53:38.679Z,2.05
2022-12-04T17:56:44.587Z,2.06
2022-12-04T17:59:49.782Z,2.07
2022-12-04T18:02:53.388Z,2.05
2022-12-04T18:05:55.199Z,2.06
2022-12-04T18:08:57.042Z,2.05
2022-12-04T18:12:01.471Z,2.02
2022-12-04T18:15:03.852Z,2.01
2022-12-04T18:18:05.458Z,1.98
2022-12-04T18:21:12.107Z,1.99
2022-12-04T18:24:14.583Z,1.93
2022-12-04T18:27:16.099Z,1.96
2022-12-04T18:30:17.672Z,1.94
2022-12-04T18:33:19.283Z,1.96
2022-12-04T18:36:24.032Z,1.95
2022-12-04T18:39:26.438Z,1.95
2022-12-04T18:42:30.719Z,1.96
2022-12-04T18:45:32.335Z,1.96
2022-12-04T18:48:34.401Z,1.94
2022-12-04T18:51:42.291Z,1.95
2022-12-04T18:54:45.332Z,1.94
2022-12-04T18:57:46.840Z,1.93
2022-12-04T19:00:49.085Z,1.91
2022-12-04T19:03:56.958Z,1.93
2022-12-04T19:06:58.486Z,1.92
2022-12-04T19:10:21.395Z,1.92
2022-12-04T19:13:21.706Z,1.91
2022-12-04T19:16:23.642Z,1.91
2022-12-04T19:19:30.152Z,1.91
2022-12-04T19:22:33.119Z,1.91
2022-12-04T19:25:35.336Z,1.89
2022-12-04T19:28:37.000Z,1.90
2022-12-04T19:31:38.648Z,1.90
2022-12-04T19:34:40.745Z,1.92
2022-12-04T19:37:43.944Z,1.91
2022-12-04T19:44:48.042Z,1.90
2022-12-04T19:47:48.048Z,1.89
2022-12-04T19:50:49.651Z,1.90
2022-12-04T19:53:51.327Z,1.90
2022-12-04T19:56:53.050Z,1.89
2022-12-04T19:59:54.633Z,1.90
2022-12-04T20:02:56.192Z,1.90
2022-12-04T20:06:15.894Z,1.91
2022-12-04T20:09:22.035Z,1.90
2022-12-04T20:12:24.472Z,1.89
2022-12-04T20:15:26.018Z,1.88
2022-12-04T20:18:27.607Z,1.87
2022-12-04T20:21:30.841Z,1.87
2022-12-04T20:24:32.427Z,1.88
2022-12-04T20:27:34.136Z,1.87
2022-12-04T20:30:35.753Z,1.87
2022-12-04T20:33:37.363Z,1.88
2022-12-04T20:36:41.795Z,1.85
2022-12-04T20:39:43.422Z,1.83
2022-12-04T20:42:45.009Z,1.86
2022-12-04T20:45:46.639Z,1.87
2022-12-04T20:48:49.686Z,1.85
2022-12-04T20:51:52.169Z,1.84
2022-12-04T20:54:53.721Z,1.78
2022-12-04T20:57:57.274Z,1.84
2022-12-04T21:01:05.884Z,1.84
2022-12-04T21:04:07.578Z,1.80
2022-12-04T21:07:09.109Z,1.82
2022-12-04T21:10:11.033Z,1.84
2022-12-04T21:13:31.360Z,1.82
2022-12-04T21:16:32.959Z,1.80
2022-12-04T21:19:34.592Z,1.78
2022-12-04T21:22:37.567Z,1.79
2022-12-04T21:25:39.250Z,1.78
2022-12-04T21:28:40.766Z,1.77
2022-12-04T21:31:42.872Z,1.77
2022-12-04T21:34:44.894Z,1.76
2022-12-04T21:37:46.425Z,1.76
2022-12-04T21:40:49.333Z,1.74
2022-12-04T21:43:50.946Z,1.73
2022-12-04T21:46:52.550Z,1.71
2022-12-04T21:49:54.755Z,1.68
2022-12-04T21:52:57.161Z,1.67
2022-12-04T21:55:58.770Z,1.65
2022-12-04T21:59:00.611Z,1.64
2022-12-04T22:02:02.521Z,1.61
2022-12-04T22:05:04.450Z,1.61
2022-12-04T22:08:07.278Z,1.63
2022-12-04T22:11:10.250Z,1.60
2022-12-04T22:14:12.241Z,1.61
2022-12-04T22:17:13.859Z,1.57
2022-12-04T22:20:15.525Z,1.59
2022-12-04T22:23:17.045Z,1.55
2022-12-04T22:26:21.875Z,1.49
2022-12-04T22:32:45.016Z,1.51
2022-12-04T22:35:46.568Z,1.48
2022-12-04T22:39:08.058Z,1.47
2022-12-04T22:42:09.949Z,1.43
2022-12-04T22:45:12.163Z,1.49
2022-12-04T22:48:13.696Z,1.49
2022-12-04T22:51:20.577Z,1.50
2022-12-04T22:54:22.122Z,1.48
2022-12-04T22:57:24.283Z,1.51
2022-12-04T23:00:25.814Z,1.51
2022-12-04T23:03:27.519Z,1.51
2022-12-04T23:06:31.202Z,1.47
2022-12-04T23:09:32.734Z,1.51
2022-12-04T23:12:34.495Z,1.50
2022-12-04T23:15:37.860Z,1.46
2022-12-04T23:18:39.372Z,1.47
2022-12-04T23:21:41.603Z,1.46
2022-12-04T23:24:43.145Z,1.45
2022-12-04T23:27:44.671Z,1.45
2022-12-04T23:30:47.269Z,1.43
2022-12-04T23:33:49.076Z,1.42
2022-12-04T23:36:50.692Z,1.41
2022-12-04T23:39:52.216Z,1.42
2022-12-04T23:42:53.754Z,1.40
2022-12-04T23:45:55.297Z,1.42
2022-12-04T23:48:56.863Z,1.42
2022-12-04T23:51:58.413Z,1.40
2022-12-04T23:54:59.960Z,1.42
2022-12-04T23:58:02.277Z,1.41
